This is the latest recevied weather packets stored in our database for station/object WP3OF-2. If no packets are shown the sender has not sent any weather packets the latest 10 day(s).
| Time | Temp. | Humidity | Pressure | Rain* | Wind** | Luminosity | Snow |
|---|---|---|---|---|---|---|---|
| 1788641519 | 23.33° C | 99% | 1023.7 hPa | 3.05 mm | - | 24 W/m² | - |
| 1788641218 | 23.89° C | 99% | 1023.7 hPa | 6.6 mm | - | 10 W/m² | - |
| 1788640915 | 23.89° C | 99% | 1023.7 hPa | 6.1 mm | - | 16 W/m² | - |
| 1788640608 | 23.89° C | 99% | 1023.7 hPa | 0 mm | - | 78 W/m² | - |
| 1788640304 | 23.89° C | 98% | 1023.7 hPa | 0 mm | - | 125 W/m² | - |
| 1788640000 | 23.89° C | 99% | 1023.4 hPa | 0 mm | - | 194 W/m² | - |
| 1788639695 | 23.89° C | 99% | 1023.4 hPa | 0 mm | - | 109 W/m² | - |
| 1788639390 | 23.89° C | 99% | 1023.7 hPa | 0 mm | - | 214 W/m² | - |
| 1788639089 | 23.89° C | 99% | 1023.4 hPa | 0 mm | - | 190 W/m² | - |
| 1788638785 | 23.89° C | 99% | 1023.4 hPa | 1.78 mm | - | 158 W/m² | - |
| 1788638481 | 23.89° C | 99% | 1023.4 hPa | 1.78 mm | - | 141 W/m² | - |
| 1788638179 | 25° C | 96% | 1023.7 hPa | 0 mm | - | 139 W/m² | - |
| 1788637874 | 25° C | 96% | 1023.7 hPa | 0 mm | - | 134 W/m² | - |
| 1788637569 | 25.56° C | 91% | 1023.7 hPa | 0 mm | - | 228 W/m² | - |
| 1788637268 | 25.56° C | 87% | 1023.4 hPa | 0 mm | - | 309 W/m² | - |
| 1788636987 | 25.56° C | 91% | 1023.4 hPa | 0 mm | - | 445 W/m² | - |
| 1788636658 | 25.56° C | 93% | 1023 hPa | 0 mm | - | 416 W/m² | - |
| 1788636354 | 25° C | 94% | 1023.4 hPa | 0 mm | - | 302 W/m² | - |
| 1788636050 | 25° C | 94% | 1023.4 hPa | 0 mm | - | 153 W/m² | - |
| 1788635749 | 25° C | 94% | 1023.4 hPa | 0 mm | - | 119 W/m² | - |
| 1788635447 | 25.56° C | 93% | 1023.4 hPa | 0 mm | - | 80 W/m² | - |
| 1788635145 | 26.11° C | 90% | 1023.7 hPa | 0 mm | - | 209 W/m² | - |
| 1788634840 | 25.56° C | 92% | 1023.4 hPa | 0 mm | - | 375 W/m² | - |
| 1788634539 | 25° C | 92% | 1023.4 hPa | 0 mm | - | 358 W/m² | - |
| 1788634239 | 25° C | 94% | 1023.7 hPa | 0 mm | - | 237 W/m² | - |
* Rain latest hour (hover to see other rain measurements)
** Current wind speed in m/s (hover to see current wind gust speed)